Time;durP1;ratioP1;P1;durP2;ratioP2;P2;SDS_P1;SDS_P2;PMS_P1;PMS_P2;Temp;Humidity;BMP_temperature;BMP_pressure;BME280_temperature;BME280_humidity;BME280_pressure;Samples;Min_cycle;Max_cycle;Signal;HPM_P1;HPM_P2
2023/04/28 00:02:18;;;;;;;39.88;19.95;;;;;;;;;;4983223;28;20041;-94
2023/04/28 00:04:44;;;;;;;43.72;20.27;;;;;;;;;;5000687;28;20438;-93
2023/04/28 00:07:10;;;;;;;43.38;21.13;;;;;;;;;;5000357;28;20321;-93
2023/04/28 00:09:36;;;;;;;42.03;22.20;;;;;;;;;;5000098;28;20097;-92
2023/04/28 00:12:02;;;;;;;46.83;21.00;;;;;;;;;;5000550;28;20030;-92
2023/04/28 00:14:28;;;;;;;48.22;22.33;;;;;;;;;;5000777;28;20026;-91
2023/04/28 00:16:57;;;;;;;45.20;24.02;;;;;;;;;;5000595;28;20019;-92
2023/04/28 00:19:23;;;;;;;44.47;22.98;;;;;;;;;;4988195;28;20150;-92
2023/04/28 00:21:49;;;;;;;52.97;24.95;;;;;;;;;;4980964;28;20035;-92
2023/04/28 00:24:15;;;;;;;64.53;28.67;;;;;;;;;;4980668;28;20161;-90
2023/04/28 00:26:42;;;;;;;59.83;27.08;;;;;;;;;;4979388;28;20035;-91
2023/04/28 00:29:08;;;;;;;105.82;37.45;;;;;;;;;;4980388;28;20311;-91
2023/04/28 00:31:34;;;;;;;231.00;66.90;;;;;;;;;;4979869;28;20035;-91
2023/04/28 00:34:00;;;;;;;207.05;58.67;;;;;;;;;;4979667;28;20529;-93
2023/04/28 00:36:30;;;;;;;175.52;54.95;;;;;;;;;;4979907;28;20050;-92
2023/04/28 00:38:56;;;;;;;151.55;50.28;;;;;;;;;;4987191;28;20022;-91
2023/04/28 00:41:23;;;;;;;154.18;52.35;;;;;;;;;;4983040;28;20034;-91
2023/04/28 00:43:49;;;;;;;172.45;52.60;;;;;;;;;;5000150;28;20026;-92
2023/04/28 00:46:26;;;;;;;152.55;51.35;;;;;;;;;;5000278;28;20026;-92
2023/04/28 00:48:52;;;;;;;138.43;48.92;;;;;;;;;;4999648;28;20037;-93
2023/04/28 00:51:18;;;;;;;145.20;45.95;;;;;;;;;;4982851;28;20022;-91
2023/04/28 00:53:45;;;;;;;151.60;51.60;;;;;;;;;;4999872;28;20053;-91
2023/04/28 00:56:11;;;;;;;163.68;53.50;;;;;;;;;;4999718;28;20030;-91
2023/04/28 00:58:38;;;;;;;191.43;59.08;;;;;;;;;;4999396;28;20023;-92
2023/04/28 01:01:08;;;;;;;185.48;56.47;;;;;;;;;;4999605;28;20034;-90
2023/04/28 01:03:36;;;;;;;138.13;46.10;;;;;;;;;;4982437;28;20109;-92
2023/04/28 01:06:04;;;;;;;127.63;47.30;;;;;;;;;;4982101;28;20121;-93
2023/04/28 01:08:31;;;;;;;135.27;44.85;;;;;;;;;;4996003;28;20030;-91
2023/04/28 01:10:57;;;;;;;124.60;43.78;;;;;;;;;;4980357;28;20019;-92
2023/04/28 01:13:23;;;;;;;107.68;38.53;;;;;;;;;;4980264;28;20053;-92
2023/04/28 01:15:49;;;;;;;87.05;33.47;;;;;;;;;;4979052;28;20074;-93
2023/04/28 01:18:16;;;;;;;83.18;33.45;;;;;;;;;;4978779;28;20027;-93
2023/04/28 01:20:42;;;;;;;73.03;30.17;;;;;;;;;;4979027;28;20299;-92
2023/04/28 01:23:12;;;;;;;66.75;28.10;;;;;;;;;;4979878;28;20074;-92
2023/04/28 01:25:38;;;;;;;62.90;27.48;;;;;;;;;;4979639;28;20109;-92
2023/04/28 01:28:04;;;;;;;72.00;28.60;;;;;;;;;;4978439;28;20444;-93
2023/04/28 01:30:30;;;;;;;58.90;27.20;;;;;;;;;;4979854;28;20340;-92
2023/04/28 01:32:56;;;;;;;52.95;25.85;;;;;;;;;;4979288;28;20035;-93
2023/04/28 01:35:22;;;;;;;51.97;25.40;;;;;;;;;;4979536;28;20089;-93
2023/04/28 01:37:48;;;;;;;48.58;26.17;;;;;;;;;;4979489;28;20428;-93
2023/04/28 01:40:33;;;;;;;58.00;27.73;;;;;;;;;;4978534;28;20030;-94
2023/04/28 01:42:59;;;;;;;53.17;26.40;;;;;;;;;;4978200;28;20030;-94
2023/04/28 01:45:25;;;;;;;56.83;27.40;;;;;;;;;;4978632;28;20031;-93
2023/04/28 01:47:51;;;;;;;60.28;28.63;;;;;;;;;;4979982;28;20042;-94
2023/04/28 01:50:17;;;;;;;54.05;27.40;;;;;;;;;;4979105;28;20041;-92
2023/04/28 01:52:43;;;;;;;61.08;29.60;;;;;;;;;;4978434;28;20321;-93
2023/04/28 01:55:09;;;;;;;54.50;26.02;;;;;;;;;;4978418;28;20413;-92
2023/04/28 01:57:35;;;;;;;53.30;26.38;;;;;;;;;;4988422;28;20026;-93
2023/04/28 02:00:02;;;;;;;53.63;25.63;;;;;;;;;;4981075;28;20034;-93
2023/04/28 02:02:28;;;;;;;48.72;24.75;;;;;;;;;;4998548;28;20022;-93
2023/04/28 02:04:56;;;;;;;40.58;21.27;;;;;;;;;;4979957;28;20030;-93
2023/04/28 02:07:23;;;;;;;44.20;22.55;;;;;;;;;;4998531;28;20030;-94
2023/04/28 02:13:06;;;;;;;39.42;20.63;;;;;;;;;;4996491;28;20068;-93
2023/04/28 02:15:32;;;;;;;41.92;21.48;;;;;;;;;;4979179;28;20354;-94
2023/04/28 02:17:58;;;;;;;36.58;18.63;;;;;;;;;;4978059;28;20031;-93
2023/04/28 02:20:26;;;;;;;32.25;18.00;;;;;;;;;;4979075;28;20023;-93
2023/04/28 02:22:52;;;;;;;32.53;17.45;;;;;;;;;;4978195;28;20030;-93
2023/04/28 02:25:18;;;;;;;24.75;14.90;;;;;;;;;;4990129;28;20030;-92
2023/04/28 02:27:44;;;;;;;25.23;15.15;;;;;;;;;;4997843;28;20089;-91
2023/04/28 02:30:11;;;;;;;27.33;14.82;;;;;;;;;;4998010;28;20049;-91
2023/04/28 02:32:37;;;;;;;26.15;14.38;;;;;;;;;;4998045;28;20056;-92
2023/04/28 02:35:03;;;;;;;25.10;13.88;;;;;;;;;;4979099;28;20030;-92
2023/04/28 02:37:29;;;;;;;26.42;13.35;;;;;;;;;;4981125;28;20022;-92
2023/04/28 02:40:28;;;;;;;24.30;13.70;;;;;;;;;;4998448;28;20026;-92
2023/04/28 02:42:54;;;;;;;19.17;13.43;;;;;;;;;;4997970;28;20039;-94
2023/04/28 02:45:20;;;;;;;22.77;13.60;;;;;;;;;;4996697;28;20041;-93
2023/04/28 02:47:46;;;;;;;21.33;12.98;;;;;;;;;;4981833;28;20030;-94
2023/04/28 02:50:12;;;;;;;21.48;12.50;;;;;;;;;;4982847;28;20037;-92
2023/04/28 02:52:38;;;;;;;19.42;12.48;;;;;;;;;;4982485;28;20029;-94
2023/04/28 02:55:04;;;;;;;18.33;13.00;;;;;;;;;;4982437;28;20019;-95
2023/04/28 02:57:30;;;;;;;20.77;13.30;;;;;;;;;;4994110;28;20030;-94
2023/04/28 02:59:56;;;;;;;27.55;13.77;;;;;;;;;;5002299;28;20046;-94
2023/04/28 03:02:22;;;;;;;25.30;14.13;;;;;;;;;;5002070;28;20038;-93
2023/04/28 03:04:48;;;;;;;19.35;13.07;;;;;;;;;;4984712;28;20023;-94
2023/04/28 03:07:14;;;;;;;20.17;12.77;;;;;;;;;;4977906;28;20027;-94
2023/04/28 03:09:45;;;;;;;24.08;13.85;;;;;;;;;;4982469;28;20106;-93
2023/04/28 03:12:11;;;;;;;21.48;13.07;;;;;;;;;;4982492;28;20035;-91
2023/04/28 03:14:37;;;;;;;22.10;13.73;;;;;;;;;;4980887;28;20043;-91
2023/04/28 03:17:03;;;;;;;22.67;13.38;;;;;;;;;;4983244;28;20113;-90
2023/04/28 03:19:29;;;;;;;22.80;12.32;;;;;;;;;;4982338;28;20034;-91
2023/04/28 03:21:55;;;;;;;18.73;12.68;;;;;;;;;;4982263;28;20030;-91
2023/04/28 03:24:21;;;;;;;23.45;13.52;;;;;;;;;;4980962;28;20050;-91
2023/04/28 03:26:47;;;;;;;20.98;13.43;;;;;;;;;;4981767;28;20038;-92
2023/04/28 03:29:13;;;;;;;24.63;13.55;;;;;;;;;;4970745;28;20043;-91
2023/04/28 03:31:39;;;;;;;22.25;12.93;;;;;;;;;;4980876;28;20026;-91
2023/04/28 03:34:05;;;;;;;21.73;12.70;;;;;;;;;;4981682;28;20114;-92
2023/04/28 03:36:31;;;;;;;22.20;11.98;;;;;;;;;;4981900;28;20022;-90
2023/04/28 03:42:01;;;;;;;20.13;12.70;;;;;;;;;;4962699;29;20325;-91
2023/04/28 03:44:27;;;;;;;23.42;13.45;;;;;;;;;;4961391;29;20485;-89
2023/04/28 03:46:53;;;;;;;19.55;12.82;;;;;;;;;;4960933;29;20492;-90
2023/04/28 03:49:19;;;;;;;22.50;13.10;;;;;;;;;;4970024;28;20070;-89
2023/04/28 03:51:46;;;;;;;19.70;12.93;;;;;;;;;;4973046;28;20121;-91
2023/04/28 03:57:16;;;;;;;19.35;12.15;;;;;;;;;;4981149;28;20030;-93
2023/04/28 03:59:42;;;;;;;19.73;13.75;;;;;;;;;;4978702;28;20042;-92
2023/04/28 04:02:08;;;;;;;22.98;13.10;;;;;;;;;;4979566;28;20448;-91
2023/04/28 04:04:34;;;;;;;19.83;13.52;;;;;;;;;;4981336;28;20401;-91
2023/04/28 04:07:01;;;;;;;26.30;13.13;;;;;;;;;;4974945;28;20365;-92
2023/04/28 04:09:27;;;;;;;19.77;12.35;;;;;;;;;;4958460;28;20084;-91
2023/04/28 04:11:53;;;;;;;27.15;12.73;;;;;;;;;;4966720;28;20027;-91
2023/04/28 04:14:19;;;;;;;21.73;12.85;;;;;;;;;;4960977;29;20322;-91
2023/04/28 04:16:49;;;;;;;24.77;13.52;;;;;;;;;;4960603;29;20122;-90
2023/04/28 04:19:15;;;;;;;22.63;12.55;;;;;;;;;;4961983;29;20363;-90
2023/04/28 04:21:41;;;;;;;21.20;13.00;;;;;;;;;;4963840;28;20089;-81
2023/04/28 04:24:07;;;;;;;33.80;15.32;;;;;;;;;;4951195;28;20071;-91
2023/04/28 04:26:33;;;;;;;141.20;42.85;;;;;;;;;;4964681;28;20031;-93
2023/04/28 04:29:00;;;;;;;106.97;37.50;;;;;;;;;;4968212;28;20043;-95
2023/04/28 04:31:26;;;;;;;62.03;27.27;;;;;;;;;;4980544;28;20095;-94
2023/04/28 04:33:52;;;;;;;39.20;21.27;;;;;;;;;;4963891;28;20030;-94
2023/04/28 04:36:18;;;;;;;35.90;21.83;;;;;;;;;;4963971;28;20027;-95
2023/04/28 04:39:11;;;;;;;29.85;19.45;;;;;;;;;;4963246;28;20039;-95
2023/04/28 04:41:37;;;;;;;36.17;23.02;;;;;;;;;;4963460;28;20031;-96
2023/04/28 04:44:04;;;;;;;58.42;30.17;;;;;;;;;;4980802;28;20027;-94
2023/04/28 04:46:31;;;;;;;54.95;27.52;;;;;;;;;;4980614;28;20034;-94
2023/04/28 04:48:57;;;;;;;37.85;20.20;;;;;;;;;;4981101;28;20027;-95
2023/04/28 04:51:23;;;;;;;32.47;17.75;;;;;;;;;;4980715;28;20071;-93
2023/04/28 04:56:53;;;;;;;26.48;13.35;;;;;;;;;;4983954;28;20077;-95
2023/04/28 04:59:19;;;;;;;17.67;11.73;;;;;;;;;;4963291;28;20329;-94
2023/04/28 05:01:45;;;;;;;20.08;11.40;;;;;;;;;;4982284;28;20023;-94
2023/04/28 05:04:11;;;;;;;21.38;10.68;;;;;;;;;;4980428;28;20058;-94
2023/04/28 05:06:37;;;;;;;20.67;11.23;;;;;;;;;;4980561;28;20054;-94
2023/04/28 05:12:20;;;;;;;23.95;12.73;;;;;;;;;;4985116;28;20049;-95
2023/04/28 05:14:46;;;;;;;21.10;12.48;;;;;;;;;;4979422;28;20030;-95
2023/04/28 05:17:12;;;;;;;22.20;11.85;;;;;;;;;;4979057;28;20398;-95
2023/04/28 05:19:38;;;;;;;18.33;11.00;;;;;;;;;;4980145;28;20333;-93
2023/04/28 05:22:04;;;;;;;17.60;9.77;;;;;;;;;;4979858;28;20307;-93
2023/04/28 05:27:36;;;;;;;14.10;9.10;;;;;;;;;;4991416;28;20030;-95
2023/04/28 05:30:02;;;;;;;14.13;8.90;;;;;;;;;;4978903;28;20038;-94
2023/04/28 05:32:28;;;;;;;17.77;8.88;;;;;;;;;;4982105;28;20030;-96
2023/04/28 05:34:54;;;;;;;16.05;9.75;;;;;;;;;;4978584;28;20109;-95
2023/04/28 05:37:21;;;;;;;14.90;8.55;;;;;;;;;;4969147;28;20030;-93
2023/04/28 05:43:04;;;;;;;14.02;8.07;;;;;;;;;;4989239;28;20049;-94
2023/04/28 05:45:30;;;;;;;13.40;8.10;;;;;;;;;;4986863;28;20449;-94
2023/04/28 05:47:56;;;;;;;12.82;7.13;;;;;;;;;;4984294;28;20429;-91
2023/04/28 05:50:22;;;;;;;13.27;7.30;;;;;;;;;;4967217;28;20476;-94
2023/04/28 05:52:48;;;;;;;13.82;7.60;;;;;;;;;;4979933;28;20030;-94
2023/04/28 05:58:18;;;;;;;16.63;8.15;;;;;;;;;;4979373;28;20070;-93
2023/04/28 06:00:44;;;;;;;12.85;6.70;;;;;;;;;;4979142;28;20402;-93
2023/04/28 06:03:10;;;;;;;10.45;6.28;;;;;;;;;;4978034;28;20425;-92
2023/04/28 06:05:36;;;;;;;13.88;6.60;;;;;;;;;;4979279;28;20188;-94
2023/04/28 06:08:02;;;;;;;15.05;6.25;;;;;;;;;;4979267;28;20325;-92
2023/04/28 06:13:45;;;;;;;11.38;5.65;;;;;;;;;;4979305;28;20078;-95
2023/04/28 06:16:11;;;;;;;8.38;3.80;;;;;;;;;;4979302;28;20026;-94
2023/04/28 06:18:37;;;;;;;6.60;3.40;;;;;;;;;;4961856;28;20053;-93
2023/04/28 06:21:03;;;;;;;9.27;3.78;;;;;;;;;;4977826;28;20062;-91
2023/04/28 06:23:29;;;;;;;7.32;3.25;;;;;;;;;;4977930;28;20027;-93
2023/04/28 06:25:55;;;;;;;8.48;3.55;;;;;;;;;;4978596;28;20018;-92
2023/04/28 06:28:22;;;;;;;7.35;2.95;;;;;;;;;;4974698;28;20044;-93
2023/04/28 06:30:48;;;;;;;9.70;3.08;;;;;;;;;;4973477;28;20027;-91
2023/04/28 06:33:14;;;;;;;7.93;2.95;;;;;;;;;;4959355;29;20031;-92
2023/04/28 06:35:40;;;;;;;7.82;3.15;;;;;;;;;;4963241;28;20101;-92
2023/04/28 06:38:07;;;;;;;11.15;2.78;;;;;;;;;;4960958;28;20027;-95
2023/04/28 06:40:33;;;;;;;8.00;3.40;;;;;;;;;;4959479;28;20031;-94
2023/04/28 06:42:59;;;;;;;10.68;3.22;;;;;;;;;;4978185;28;20042;-93
2023/04/28 06:45:25;;;;;;;5.95;3.03;;;;;;;;;;4973363;28;20058;-94
2023/04/28 06:47:54;;;;;;;7.50;2.70;;;;;;;;;;4978344;28;20039;-85
2023/04/28 06:50:20;;;;;;;5.68;2.50;;;;;;;;;;4972517;28;20445;-85
2023/04/28 06:52:46;;;;;;;5.30;2.60;;;;;;;;;;4964016;28;20067;-85
2023/04/28 06:55:15;;;;;;;6.57;2.15;;;;;;;;;;4959125;29;20075;-84
2023/04/28 06:57:41;;;;;;;4.55;2.67;;;;;;;;;;4960569;28;20027;-85
2023/04/28 07:00:08;;;;;;;6.60;2.90;;;;;;;;;;4964958;28;20117;-84
2023/04/28 07:02:35;;;;;;;7.75;2.50;;;;;;;;;;4968740;28;20027;-84
2023/04/28 07:05:02;;;;;;;7.03;2.63;;;;;;;;;;4960013;28;20035;-84
2023/04/28 07:07:28;;;;;;;8.25;2.20;;;;;;;;;;4963063;28;20326;-89
2023/04/28 07:09:54;;;;;;;5.82;2.22;;;;;;;;;;4971451;28;20038;-91
2023/04/28 07:12:21;;;;;;;6.10;2.20;;;;;;;;;;4967586;28;20047;-91
2023/04/28 07:14:47;;;;;;;8.18;2.28;;;;;;;;;;4975556;28;20027;-82
2023/04/28 07:17:13;;;;;;;7.50;3.15;;;;;;;;;;4965425;28;20023;-83
2023/04/28 07:19:39;;;;;;;7.18;3.20;;;;;;;;;;4978010;28;20074;-83
2023/04/28 07:22:05;;;;;;;8.98;3.40;;;;;;;;;;4978206;28;20413;-83
2023/04/28 07:24:31;;;;;;;8.23;2.40;;;;;;;;;;4976926;28;20034;-83
2023/04/28 07:26:58;;;;;;;8.50;2.03;;;;;;;;;;4977977;28;20031;-83
2023/04/28 07:29:24;;;;;;;5.75;2.15;;;;;;;;;;4976810;28;20051;-83
2023/04/28 07:31:50;;;;;;;7.38;3.33;;;;;;;;;;4978456;28;20050;-83
2023/04/28 07:34:16;;;;;;;8.20;2.60;;;;;;;;;;4981836;28;20023;-83
2023/04/28 07:36:42;;;;;;;4.45;1.90;;;;;;;;;;4981585;28;20030;-83
2023/04/28 07:39:08;;;;;;;7.15;1.80;;;;;;;;;;4980520;28;20038;-83
2023/04/28 07:41:38;;;;;;;7.20;2.20;;;;;;;;;;4981293;28;20415;-83
2023/04/28 07:44:09;;;;;;;4.85;1.90;;;;;;;;;;4980265;28;20030;-83
2023/04/28 07:46:35;;;;;;;5.88;2.20;;;;;;;;;;4979883;28;20113;-83
2023/04/28 07:49:01;;;;;;;4.68;2.08;;;;;;;;;;4980273;28;20027;-83
2023/04/28 07:51:28;;;;;;;9.02;2.40;;;;;;;;;;4981318;28;20027;-83
2023/04/28 07:53:54;;;;;;;6.70;3.20;;;;;;;;;;4981148;28;20402;-83
2023/04/28 07:56:20;;;;;;;8.13;2.67;;;;;;;;;;4979731;28;20428;-83
2023/04/28 07:58:46;;;;;;;7.10;2.13;;;;;;;;;;4979729;28;20043;-83
2023/04/28 08:01:12;;;;;;;8.77;2.03;;;;;;;;;;4981150;28;20027;-83
2023/04/28 08:03:38;;;;;;;5.45;2.38;;;;;;;;;;4981040;28;20053;-83
2023/04/28 08:06:05;;;;;;;4.70;2.08;;;;;;;;;;4980023;28;20053;-83
2023/04/28 08:08:31;;;;;;;8.95;2.03;;;;;;;;;;4980937;28;20329;-83
2023/04/28 08:10:58;;;;;;;7.57;2.28;;;;;;;;;;4979875;28;20203;-83
2023/04/28 08:13:24;;;;;;;9.48;3.00;;;;;;;;;;4980856;28;20496;-83
2023/04/28 08:15:50;;;;;;;12.15;4.40;;;;;;;;;;4980702;28;20038;-83
2023/04/28 08:18:16;;;;;;;10.25;3.17;;;;;;;;;;4980808;28;20054;-83
2023/04/28 08:20:42;;;;;;;5.53;2.10;;;;;;;;;;4980832;28;20131;-83
2023/04/28 08:23:09;;;;;;;5.55;2.72;;;;;;;;;;4980547;28;20023;-84
2023/04/28 08:25:35;;;;;;;5.90;2.20;;;;;;;;;;4979694;28;20058;-84
2023/04/28 08:28:02;;;;;;;5.85;2.00;;;;;;;;;;4979452;28;20047;-84
2023/04/28 08:30:28;;;;;;;5.47;1.70;;;;;;;;;;4980563;28;20125;-84
2023/04/28 08:32:54;;;;;;;6.22;2.30;;;;;;;;;;4979719;28;20086;-84
2023/04/28 08:35:21;;;;;;;4.95;1.92;;;;;;;;;;4980577;28;20033;-84
2023/04/28 08:37:48;;;;;;;5.65;2.17;;;;;;;;;;4980576;28;20054;-84
2023/04/28 08:40:14;;;;;;;5.65;2.20;;;;;;;;;;4979441;28;20440;-84
2023/04/28 08:42:41;;;;;;;8.18;2.05;;;;;;;;;;4980280;28;20034;-84
2023/04/28 08:45:08;;;;;;;8.38;3.70;;;;;;;;;;4980443;28;20027;-84
2023/04/28 08:47:35;;;;;;;7.28;2.40;;;;;;;;;;4979262;28;20039;-84
2023/04/28 08:50:05;;;;;;;5.22;1.90;;;;;;;;;;4979180;28;20023;-84
2023/04/28 08:52:32;;;;;;;7.10;2.40;;;;;;;;;;4979171;28;20022;-84
2023/04/28 08:54:59;;;;;;;5.45;2.00;;;;;;;;;;4978747;28;20045;-84
2023/04/28 08:57:27;;;;;;;6.53;2.28;;;;;;;;;;4979098;28;20325;-83
2023/04/28 08:59:53;;;;;;;6.13;2.72;;;;;;;;;;4978900;28;20043;-84
2023/04/28 09:02:19;;;;;;;5.95;1.80;;;;;;;;;;4979914;28;20040;-83
2023/04/28 09:04:47;;;;;;;9.65;2.75;;;;;;;;;;4980114;28;20031;-84
2023/04/28 09:07:13;;;;;;;3.55;2.03;;;;;;;;;;4980101;28;20030;-85
2023/04/28 09:09:40;;;;;;;6.85;2.17;;;;;;;;;;4980232;28;20045;-84
2023/04/28 09:12:06;;;;;;;5.00;2.38;;;;;;;;;;4979730;28;20034;-85
2023/04/28 09:14:33;;;;;;;6.72;1.88;;;;;;;;;;4979780;28;20409;-84
2023/04/28 09:17:00;;;;;;;9.40;2.38;;;;;;;;;;4978833;28;20027;-85
2023/04/28 09:19:36;;;;;;;8.07;2.63;;;;;;;;;;4979680;28;20038;-85
2023/04/28 09:22:03;;;;;;;6.93;2.20;;;;;;;;;;4978804;28;20026;-84
2023/04/28 09:24:30;;;;;;;3.95;1.73;;;;;;;;;;4979687;28;20035;-85
2023/04/28 09:26:59;;;;;;;5.35;1.90;;;;;;;;;;4978268;28;20090;-85
2023/04/28 09:29:25;;;;;;;6.25;2.40;;;;;;;;;;4978356;28;20130;-85
2023/04/28 09:31:52;;;;;;;11.43;2.83;;;;;;;;;;4978529;28;20026;-84
2023/04/28 09:34:18;;;;;;;8.93;4.90;;;;;;;;;;4979658;28;20019;-85
2023/04/28 09:36:45;;;;;;;7.47;2.80;;;;;;;;;;4979327;28;20023;-85
2023/04/28 09:39:11;;;;;;;7.95;1.92;;;;;;;;;;4978096;28;20050;-85
2023/04/28 09:41:39;;;;;;;9.70;2.17;;;;;;;;;;4978331;28;20325;-84
2023/04/28 09:44:20;;;;;;;8.02;2.03;;;;;;;;;;4978265;28;20095;-85
2023/04/28 09:46:46;;;;;;;3.95;1.98;;;;;;;;;;4980051;28;20342;-84
2023/04/28 09:49:13;;;;;;;18.83;3.17;;;;;;;;;;4979138;28;20031;-84
2023/04/28 09:51:40;;;;;;;4.93;2.17;;;;;;;;;;4979167;28;20051;-84
2023/04/28 09:54:06;;;;;;;3.90;1.60;;;;;;;;;;4978793;28;20027;-84
2023/04/28 09:56:33;;;;;;;3.97;2.03;;;;;;;;;;4978560;28;20034;-84
2023/04/28 09:59:00;;;;;;;6.28;2.03;;;;;;;;;;4977721;28;20046;-84
2023/04/28 10:01:47;;;;;;;4.80;1.60;;;;;;;;;;4977952;28;20027;-84
2023/04/28 10:04:14;;;;;;;5.10;1.77;;;;;;;;;;4978632;28;20402;-84
2023/04/28 10:06:40;;;;;;;9.25;2.22;;;;;;;;;;4978586;28;20035;-84
2023/04/28 10:09:07;;;;;;;3.83;1.88;;;;;;;;;;4978672;28;20023;-84
2023/04/28 10:11:33;;;;;;;21.60;2.58;;;;;;;;;;4978773;28;20031;-84
2023/04/28 10:13:59;;;;;;;6.85;2.28;;;;;;;;;;4963140;28;20039;-84
2023/04/28 10:16:29;;;;;;;5.95;1.88;;;;;;;;;;4958429;29;20322;-84
2023/04/28 10:18:56;;;;;;;7.75;2.08;;;;;;;;;;4957948;29;20035;-84
2023/04/28 10:21:23;;;;;;;9.32;2.47;;;;;;;;;;4958465;29;20444;-84
2023/04/28 10:24:04;;;;;;;4.97;2.15;;;;;;;;;;4959623;28;20038;-84
2023/04/28 10:26:49;;;;;;;3.97;2.10;;;;;;;;;;4974091;28;20035;-85
2023/04/28 10:29:15;;;;;;;5.50;2.30;;;;;;;;;;4975069;28;20055;-84
2023/04/28 10:32:01;;;;;;;5.85;2.22;;;;;;;;;;4978415;28;20026;-84
2023/04/28 10:34:28;;;;;;;5.47;2.13;;;;;;;;;;4978521;28;20065;-84
2023/04/28 10:36:54;;;;;;;9.50;2.50;;;;;;;;;;4977569;28;20034;-83
2023/04/28 10:39:20;;;;;;;6.18;1.80;;;;;;;;;;4977252;28;20035;-84
2023/04/28 10:41:47;;;;;;;3.83;1.83;;;;;;;;;;4978473;28;20077;-85
2023/04/28 10:44:28;;;;;;;5.43;2.28;;;;;;;;;;4978452;28;20027;-84
2023/04/28 10:47:02;;;;;;;6.53;2.33;;;;;;;;;;4978652;28;20027;-84
2023/04/28 10:49:58;;;;;;;4.55;2.05;;;;;;;;;;4978528;28;20317;-85
2023/04/28 10:52:36;;;;;;;7.15;2.08;;;;;;;;;;4882042;29;20064;-84
2023/04/28 10:55:21;;;;;;;9.35;2.88;;;;;;;;;;4880584;29;20025;-83
2023/04/28 10:57:47;;;;;;;4.88;2.28;;;;;;;;;;4881558;29;20081;-86
2023/04/28 11:00:44;;;;;;;6.60;2.47;;;;;;;;;;4878418;29;20041;-86
2023/04/28 11:03:30;;;;;;;7.85;2.00;;;;;;;;;;4811028;29;20055;-85
2023/04/28 11:06:14;;;;;;;5.57;2.40;;;;;;;;;;4808440;29;20031;-85
2023/04/28 11:08:40;;;;;;;8.02;2.55;;;;;;;;;;4806159;29;20038;-85
2023/04/28 11:11:10;;;;;;;6.40;2.22;;;;;;;;;;4811759;29;20342;-85
2023/04/28 11:13:36;;;;;;;7.82;2.30;;;;;;;;;;4814131;29;20335;-85
2023/04/28 11:16:12;;;;;;;4.05;2.13;;;;;;;;;;4812487;29;20046;-85
2023/04/28 11:18:51;;;;;;;6.07;2.15;;;;;;;;;;4811705;29;20330;-85
2023/04/28 11:21:20;;;;;;;6.72;1.90;;;;;;;;;;4811967;29;20054;-85
2023/04/28 11:23:47;;;;;;;6.15;2.10;;;;;;;;;;4811826;29;20118;-86
2023/04/28 11:26:16;;;;;;;14.00;2.40;;;;;;;;;;4811521;29;20434;-85
2023/04/28 11:28:59;;;;;;;12.40;2.03;;;;;;;;;;4837359;29;20049;-84
2023/04/28 11:31:25;;;;;;;5.90;2.40;;;;;;;;;;4866649;29;20386;-85
2023/04/28 11:33:54;;;;;;;4.68;1.77;;;;;;;;;;4869991;29;20038;-86
2023/04/28 11:36:31;;;;;;;4.97;1.88;;;;;;;;;;4887948;29;20332;-86
2023/04/28 11:38:57;;;;;;;6.28;2.08;;;;;;;;;;4925844;28;20065;-86
2023/04/28 11:41:24;;;;;;;8.10;1.80;;;;;;;;;;4976467;28;20326;-86
2023/04/28 11:43:50;;;;;;;6.00;2.00;;;;;;;;;;4981790;28;20039;-86
2023/04/28 11:46:17;;;;;;;5.28;2.03;;;;;;;;;;4980924;28;20022;-86
2023/04/28 11:48:44;;;;;;;7.33;2.10;;;;;;;;;;4984916;28;20073;-84
2023/04/28 11:51:10;;;;;;;5.90;1.95;;;;;;;;;;4973327;28;20054;-85
2023/04/28 11:53:43;;;;;;;6.55;1.90;;;;;;;;;;4981340;28;20043;-85
2023/04/28 11:56:09;;;;;;;3.83;1.80;;;;;;;;;;4981657;28;20073;-85
2023/04/28 11:58:35;;;;;;;6.63;2.22;;;;;;;;;;4981057;28;20106;-85
2023/04/28 12:01:14;;;;;;;5.20;2.28;;;;;;;;;;4981378;28;20046;-85
2023/04/28 12:03:47;;;;;;;5.43;2.08;;;;;;;;;;4981256;28;20026;-85
2023/04/28 12:06:19;;;;;;;6.95;2.35;;;;;;;;;;4981621;28;20074;-85
2023/04/28 12:08:45;;;;;;;13.55;5.25;;;;;;;;;;4981479;28;20026;-85
2023/04/28 12:11:48;;;;;;;5.18;2.78;;;;;;;;;;4980073;28;20093;-85
2023/04/28 12:14:14;;;;;;;6.82;2.50;;;;;;;;;;4982909;28;20034;-85
2023/04/28 12:16:45;;;;;;;6.13;1.80;;;;;;;;;;4992546;28;20034;-86
2023/04/28 12:19:12;;;;;;;4.63;2.20;;;;;;;;;;4983384;28;20041;-86
2023/04/28 12:21:39;;;;;;;5.43;1.90;;;;;;;;;;4979994;28;20030;-86
2023/04/28 12:24:18;;;;;;;7.00;2.60;;;;;;;;;;4981064;28;20030;-86
2023/04/28 12:26:44;;;;;;;4.03;1.95;;;;;;;;;;4981124;28;20118;-86
2023/04/28 12:29:30;;;;;;;6.82;2.20;;;;;;;;;;4980165;28;20051;-86
2023/04/28 12:31:57;;;;;;;5.43;2.00;;;;;;;;;;4974643;28;20057;-86
2023/04/28 12:34:23;;;;;;;7.95;2.30;;;;;;;;;;4980706;28;20102;-87
2023/04/28 12:36:50;;;;;;;5.03;2.30;;;;;;;;;;4980026;28;20035;-87
2023/04/28 12:39:18;;;;;;;4.53;2.17;;;;;;;;;;4980901;28;20042;-86
2023/04/28 12:41:45;;;;;;;7.57;3.45;;;;;;;;;;4981516;28;20031;-86
2023/04/28 12:44:11;;;;;;;7.70;2.10;;;;;;;;;;4966191;28;20066;-87
2023/04/28 12:46:37;;;;;;;5.78;1.95;;;;;;;;;;4991876;28;20027;-86
2023/04/28 12:49:04;;;;;;;6.78;2.33;;;;;;;;;;4962719;28;20046;-87
2023/04/28 12:51:30;;;;;;;6.45;2.60;;;;;;;;;;4963484;28;20030;-87
2023/04/28 12:53:56;;;;;;;6.90;2.53;;;;;;;;;;4980687;28;20019;-87
2023/04/28 12:56:22;;;;;;;6.60;2.20;;;;;;;;;;4980532;28;20077;-87
2023/04/28 12:58:49;;;;;;;7.57;2.08;;;;;;;;;;4980194;28;20113;-83
2023/04/28 13:01:15;;;;;;;6.10;1.60;;;;;;;;;;4979893;28;20078;-82
2023/04/28 13:03:42;;;;;;;5.65;1.65;;;;;;;;;;4987408;28;20026;-87
2023/04/28 13:06:09;;;;;;;4.95;2.00;;;;;;;;;;4979139;28;20034;-87
2023/04/28 13:08:38;;;;;;;7.60;2.25;;;;;;;;;;4983278;28;20081;-86
2023/04/28 13:11:54;;;;;;;2.75;1.50;;;;;;;;;;4995389;28;20030;-87
2023/04/28 13:14:21;;;;;;;4.22;2.25;;;;;;;;;;4962551;28;20071;-85
2023/04/28 13:16:47;;;;;;;6.10;2.15;;;;;;;;;;4974922;28;20029;-86
2023/04/28 13:19:18;;;;;;;6.35;2.45;;;;;;;;;;4975747;28;20041;-87
2023/04/28 13:21:47;;;;;;;4.63;2.35;;;;;;;;;;4979627;28;20049;-86
2023/04/28 13:24:13;;;;;;;5.93;2.17;;;;;;;;;;4962779;28;20109;-87
2023/04/28 13:26:39;;;;;;;4.82;1.83;;;;;;;;;;4962342;28;20035;-87
2023/04/28 13:29:08;;;;;;;9.18;2.78;;;;;;;;;;4978760;28;20129;-84
2023/04/28 13:31:34;;;;;;;11.88;2.00;;;;;;;;;;4979608;28;20038;-85
2023/04/28 13:34:01;;;;;;;5.00;2.08;;;;;;;;;;4962450;28;20023;-85
2023/04/28 13:36:31;;;;;;;6.95;2.60;;;;;;;;;;4979647;28;20102;-85
2023/04/28 13:38:57;;;;;;;4.57;1.95;;;;;;;;;;4979523;28;20019;-86
2023/04/28 13:41:24;;;;;;;5.40;2.00;;;;;;;;;;4961919;28;20041;-85
2023/04/28 13:43:50;;;;;;;6.25;2.25;;;;;;;;;;4979436;28;20058;-86
2023/04/28 13:46:16;;;;;;;5.75;2.10;;;;;;;;;;4979615;28;20023;-86
2023/04/28 13:48:42;;;;;;;9.20;2.30;;;;;;;;;;4979269;28;20429;-86
2023/04/28 13:51:08;;;;;;;5.85;2.17;;;;;;;;;;4979541;28;20027;-84
2023/04/28 13:53:36;;;;;;;3.58;1.58;;;;;;;;;;4979274;28;20026;-86
2023/04/28 13:56:03;;;;;;;4.97;1.77;;;;;;;;;;4962194;28;20065;-86
2023/04/28 13:58:29;;;;;;;5.35;2.42;;;;;;;;;;4979222;28;20102;-86
2023/04/28 14:00:58;;;;;;;4.40;2.10;;;;;;;;;;4962221;28;20054;-87
2023/04/28 14:03:24;;;;;;;5.35;2.42;;;;;;;;;;4979345;28;20029;-86
2023/04/28 14:05:51;;;;;;;3.65;2.20;;;;;;;;;;4962146;28;20073;-87
2023/04/28 14:08:17;;;;;;;2.88;1.60;;;;;;;;;;4979010;28;20033;-87
2023/04/28 14:10:44;;;;;;;3.22;1.83;;;;;;;;;;4978471;28;20027;-86
2023/04/28 14:13:10;;;;;;;4.40;1.60;;;;;;;;;;4962052;28;20027;-87
2023/04/28 14:15:36;;;;;;;3.35;1.75;;;;;;;;;;4962023;28;20058;-86
2023/04/28 14:18:05;;;;;;;6.15;2.03;;;;;;;;;;4961637;28;20090;-86
2023/04/28 14:20:31;;;;;;;4.63;1.95;;;;;;;;;;4979046;28;20392;-86
2023/04/28 14:22:58;;;;;;;9.32;2.85;;;;;;;;;;4979051;28;20026;-87
2023/04/28 14:25:24;;;;;;;4.72;2.22;;;;;;;;;;4961302;28;20057;-86
2023/04/28 14:27:51;;;;;;;5.45;2.30;;;;;;;;;;4961731;28;20047;-86
2023/04/28 14:30:17;;;;;;;5.57;2.00;;;;;;;;;;4978634;28;20054;-85
2023/04/28 14:32:43;;;;;;;4.93;2.20;;;;;;;;;;4978726;28;20030;-86
2023/04/28 14:35:11;;;;;;;3.47;2.15;;;;;;;;;;4978589;28;20023;-86
2023/04/28 14:37:37;;;;;;;3.97;2.00;;;;;;;;;;4978879;28;20042;-86
2023/04/28 14:40:04;;;;;;;8.10;2.05;;;;;;;;;;4979422;28;20769;-85
2023/04/28 14:42:31;;;;;;;3.80;2.15;;;;;;;;;;4984900;28;20034;-86
2023/04/28 14:44:58;;;;;;;6.35;2.10;;;;;;;;;;4967918;28;20030;-85
2023/04/28 14:47:25;;;;;;;5.03;2.22;;;;;;;;;;4985239;28;20165;-86
2023/04/28 14:49:55;;;;;;;4.68;2.10;;;;;;;;;;4968024;28;20408;-85
2023/04/28 14:52:21;;;;;;;7.75;2.63;;;;;;;;;;4984941;28;20027;-85
2023/04/28 14:54:51;;;;;;;12.43;2.25;;;;;;;;;;4985115;28;20139;-86
2023/04/28 14:57:17;;;;;;;6.38;2.50;;;;;;;;;;4967910;28;20018;-85
2023/04/28 14:59:53;;;;;;;7.82;2.47;;;;;;;;;;4967143;28;20129;-85
2023/04/28 15:02:25;;;;;;;13.73;4.85;;;;;;;;;;4967235;28;20039;-86
2023/04/28 15:04:51;;;;;;;16.58;7.30;;;;;;;;;;4967868;28;20069;-86